Estación Meteorológica Peña el Pijo (Robertgarden) [ 11/14/19 13:22:32 CET ]

Fecha Hora Presion(HPa) Temp (°C) Humedad % Rocio (°C) Viento ( m/s) Direccion Lluvia 1Hora(mm) Lluvia 24H(mm) LLuvia Total(mm)
2019-Jul-26 01:01:48 1010.200 18.9 53 9.1         344.18
2019-Jul-26 02:01:50 1009.500 17.6 58 9.2         344.18
2019-Jul-26 03:01:42 1009.000 16.7 62 9.4         344.18
2019-Jul-26 04:01:39 1008.700 18.4 57 9.7         344.18
2019-Jul-26 05:02:08 1008.300 18.2 57 9.5         344.18
2019-Jul-26 06:02:07 1007.900 17.9 57 9.2         344.18
2019-Jul-26 07:01:41 1008.100 18.4 57 9.7         344.18
2019-Jul-26 08:01:38 1008.300 18.9 57 10.2         344.18
2019-Jul-26 09:01:51 1008.200 21.8 54 12.0         344.18
2019-Jul-26 10:01:45 1008.400 25.5 46 13.0         344.18
2019-Jul-26 11:01:42 1008.200 29.0 38 13.2 0.7 NE     344.18
2019-Jul-26 12:01:45 1007.800 28.3 36 11.7         344.18
2019-Jul-26 13:01:41 1008.100 28.4 31 9.6         344.18
2019-Jul-26 14:01:50 1007.600 31.9 26 9.8         344.18
2019-Jul-26 15:01:48 1006.900 33.1 25 10.2         344.18
2019-Jul-26 16:01:25 1006.800 33.4 24 9.9         344.18
2019-Jul-26 17:31:24 1006.300 31.6 27 10.1 0.9 NW     344.18
2019-Jul-26 18:01:39 1006.300 30.9 26 8.9         344.18
2019-Jul-26 19:01:45 1006.200 29.8 23 6.2         344.18
2019-Jul-26 20:01:56 1006.300 28.1 26 6.6         344.18
2019-Jul-26 21:01:53 1006.600 25.2 31 6.9         344.18
2019-Jul-26 22:01:42 1006.800 23.3 37 7.7         344.18
2019-Jul-26 23:02:03 1006.800 22.3 44 9.4         344.18

Temperatura Máxima:33°    Temperatura Mínima:16°
Presión Máxima:1010.200 Hpa    Presión Mínima:1006.200 Hpa


Volver